Time;durP1;ratioP1;P1;durP2;ratioP2;P2;SDS_P1;SDS_P2;PMS_P1;PMS_P2;Temp;Humidity;BMP_temperature;BMP_pressure;BME280_temperature;BME280_humidity;BME280_pressure;Samples;Min_cycle;Max_cycle;Signal;HPM_P1;HPM_P2
2021/12/31 00:00:26;;;;;;;5.60;3.40;;;7.60;1.00;7.90;94604.00;;;;4953322;28;20203;-86
2021/12/31 00:02:53;;;;;;;3.53;2.75;;;7.60;1.00;8.00;94530.00;;;;4968154;28;20201;-84
2021/12/31 00:05:20;;;;;;;11.85;5.47;;;7.70;1.00;8.00;94601.00;;;;4953268;28;20680;-84
2021/12/31 00:07:47;;;;;;;51.33;24.00;;;7.70;1.00;8.00;94577.00;;;;4969558;28;20727;-85
2021/12/31 00:10:14;;;;;;;6.32;3.33;;;7.70;1.00;7.90;94586.00;;;;4950722;28;20217;-85
2021/12/31 00:12:43;;;;;;;4.53;2.60;;;7.70;1.00;7.90;94564.00;;;;4968153;28;20703;-85
2021/12/31 00:15:12;;;;;;;46.40;23.10;;;7.70;1.00;7.90;94554.00;;;;4956670;28;20228;-85
2021/12/31 00:17:40;;;;;;;13.40;7.97;;;7.60;1.00;7.80;94624.00;;;;4954757;28;20210;-85
2021/12/31 00:20:15;;;;;;;13.65;7.32;;;7.60;1.00;7.80;94577.00;;;;4967238;28;20542;-85
2021/12/31 00:25:40;;;;;;;5.35;3.17;;;7.50;1.00;7.80;94618.00;;;;4970706;28;20202;-84
2021/12/31 00:28:09;;;;;;;17.63;8.90;;;7.50;1.00;7.80;94609.00;;;;4970541;28;20186;-85
2021/12/31 00:30:38;;;;;;;7.30;4.10;;;7.50;1.00;7.30;94604.00;;;;4936417;28;20741;-84
2021/12/31 00:33:09;;;;;;;9.60;4.60;;;7.50;1.00;7.90;94583.00;;;;4969446;28;20194;-84
2021/12/31 00:35:38;;;;;;;4.90;3.55;;;7.50;1.00;7.60;94638.00;;;;4967966;28;20664;-83
2021/12/31 00:38:05;;;;;;;7.85;3.53;;;7.40;1.00;7.70;94536.00;;;;4950464;28;20225;-84
2021/12/31 00:40:32;;;;;;;7.28;4.15;;;7.40;1.00;7.70;94536.00;;;;4951441;28;20236;-85
2021/12/31 00:42:59;;;;;;;15.40;7.75;;;7.40;1.00;7.70;94544.00;;;;4970990;28;20189;-85
2021/12/31 00:45:27;;;;;;;4.53;3.23;;;7.30;1.00;7.70;94574.00;;;;4958417;28;20190;-85
2021/12/31 00:47:55;;;;;;;7.20;3.58;;;7.30;1.00;7.60;94544.00;;;;4970243;28;20200;-84
2021/12/31 00:50:22;;;;;;;4.28;2.00;;;7.30;1.00;7.60;94539.00;;;;4973830;28;20193;-84
2021/12/31 00:52:49;;;;;;;7.13;2.97;;;7.30;1.00;7.40;94475.00;;;;4958641;28;20190;-85
2021/12/31 00:55:16;;;;;;;5.23;1.83;;;7.30;1.00;7.40;94490.00;;;;4973174;28;20190;-85
2021/12/31 00:57:44;;;;;;;5.50;2.23;;;7.20;1.00;7.30;94461.00;;;;4986841;28;20272;-84
2021/12/31 01:00:15;;;;;;;8.27;3.60;;;7.20;1.00;7.40;94581.00;;;;4957033;28;20226;-84
2021/12/31 01:02:46;;;;;;;10.77;5.17;;;7.20;1.00;7.10;94572.00;;;;4952728;28;20186;-85
2021/12/31 01:05:15;;;;;;;4.57;2.63;;;7.00;1.00;7.10;94604.00;;;;4957467;28;20194;-85
2021/12/31 01:07:43;;;;;;;2.77;1.90;;;7.00;1.00;7.00;94559.00;;;;4970371;28;21049;-84
2021/12/31 01:10:16;;;;;;;11.47;6.53;;;6.80;99.90;6.80;94598.00;;;;4970292;28;20197;-83
2021/12/31 01:12:44;;;;;;;7.53;4.43;;;6.90;1.00;7.30;94598.00;;;;4977040;28;20688;-86
2021/12/31 01:15:21;;;;;;;11.87;5.50;;;7.00;1.00;6.90;94595.00;;;;4971000;28;20198;-85
2021/12/31 01:20:27;;;;;;;10.33;5.10;;;6.90;1.00;7.10;94486.00;;;;4971268;28;20201;-84
2021/12/31 01:22:54;;;;;;;13.90;7.70;;;6.90;1.00;7.00;94449.00;;;;4956739;28;20198;-85
2021/12/31 01:25:22;;;;;;;3.50;2.47;;;6.90;1.00;7.10;94574.00;;;;4955730;28;20198;-84
2021/12/31 01:27:49;;;;;;;4.10;2.70;;;6.90;1.00;7.10;94442.00;;;;4972145;28;20206;-85
2021/12/31 01:30:16;;;;;;;12.43;6.50;;;6.90;1.00;7.00;94501.00;;;;4969771;28;20759;-84
2021/12/31 01:32:49;;;;;;;8.13;4.47;;;6.90;1.00;7.10;94613.00;;;;4972088;28;20292;-84
2021/12/31 01:35:17;;;;;;;7.33;3.97;;;6.90;1.00;7.00;94608.00;;;;4955402;28;20214;-84
2021/12/31 01:37:44;;;;;;;4.43;3.10;;;6.90;1.00;6.90;94478.00;;;;4953372;28;20194;-84
2021/12/31 01:40:13;;;;;;;7.03;3.20;;;6.80;1.00;6.90;94571.00;;;;4972491;28;20218;-84
2021/12/31 01:42:40;;;;;;;4.13;3.20;;;6.80;1.00;6.90;94558.00;;;;4969911;28;20221;-85
2021/12/31 01:45:17;;;;;;;7.27;4.77;;;6.80;1.00;7.00;94556.00;;;;4959555;28;20285;-84
2021/12/31 01:48:04;;;;;;;6.97;3.60;;;6.80;1.00;6.80;94630.00;;;;4966047;28;20661;-85
2021/12/31 01:50:32;;;;;;;5.07;3.30;;;6.80;1.00;6.80;94562.00;;;;4951075;28;20182;-85
2021/12/31 01:53:01;;;;;;;10.00;4.70;;;6.80;1.00;6.70;94592.00;;;;4955567;28;20225;-84
2021/12/31 01:55:32;;;;;;;7.37;3.93;;;6.70;1.00;6.60;94600.00;;;;4951551;28;20628;-85
2021/12/31 01:58:03;;;;;;;8.40;4.17;;;6.60;1.00;6.60;94486.00;;;;4971209;28;20676;-85
2021/12/31 02:00:30;;;;;;;7.87;4.07;;;6.50;1.00;6.40;94624.00;;;;4969581;28;20715;-85
2021/12/31 02:03:01;;;;;;;7.77;4.30;;;6.40;1.00;6.40;94491.00;;;;4952194;28;20206;-84
2021/12/31 02:05:28;;;;;;;9.03;4.57;;;6.30;1.00;6.40;94627.00;;;;4972508;28;20277;-85
2021/12/31 02:07:57;;;;;;;5.20;3.83;;;6.30;1.00;6.50;94553.00;;;;4972885;28;20226;-85
2021/12/31 02:10:25;;;;;;;7.80;4.80;;;6.30;1.00;6.50;94614.00;;;;4956023;28;20293;-86
2021/12/31 02:12:54;;;;;;;9.07;4.60;;;6.40;1.00;6.50;94536.00;;;;4954755;28;20204;-85
2021/12/31 02:15:21;;;;;;;5.63;2.90;;;6.40;1.00;6.50;94528.00;;;;4972049;28;20193;-85
2021/12/31 02:17:49;;;;;;;6.30;4.43;;;6.30;1.00;6.50;94566.00;;;;4968058;28;20198;-86
2021/12/31 02:20:19;;;;;;;4.80;3.13;;;6.30;1.00;6.30;94515.00;;;;4970848;28;20251;-86
2021/12/31 02:22:55;;;;;;;5.33;4.07;;;6.30;1.00;6.40;94514.00;;;;4971634;28;20245;-86
2021/12/31 02:25:24;;;;;;;6.90;3.60;;;6.20;1.00;6.30;94617.00;;;;4972439;28;20190;-86
2021/12/31 02:27:52;;;;;;;5.13;3.57;;;6.20;1.00;6.30;94478.00;;;;4955959;28;20668;-87
2021/12/31 02:30:19;;;;;;;7.80;3.63;;;6.20;1.00;6.30;94522.00;;;;4955756;28;20221;-86
2021/12/31 02:32:46;;;;;;;7.33;3.73;;;6.20;1.00;6.40;94507.00;;;;4954123;28;20668;-86
2021/12/31 02:35:14;;;;;;;4.87;3.70;;;6.20;1.00;6.50;94467.00;;;;4955645;28;20736;-85
2021/12/31 02:37:44;;;;;;;10.63;4.43;;;6.20;1.00;6.40;94492.00;;;;4952857;28;20204;-85
2021/12/31 02:40:15;;;;;;;13.73;5.47;;;6.20;1.00;6.40;94455.00;;;;4971382;28;20234;-86
2021/12/31 02:42:42;;;;;;;5.80;3.53;;;6.20;1.00;6.60;94447.00;;;;4973251;28;20711;-87
2021/12/31 02:45:12;;;;;;;5.97;3.90;;;6.30;1.00;6.60;94602.00;;;;4986220;28;20190;-87
2021/12/31 02:47:45;;;;;;;10.00;5.17;;;6.30;1.00;6.70;94471.00;;;;4954578;28;20198;-86
2021/12/31 02:50:16;;;;;;;7.23;4.30;;;6.40;1.00;6.60;94520.00;;;;4955449;28;20198;-88
2021/12/31 02:52:46;;;;;;;9.87;4.37;;;6.50;1.00;6.60;94544.00;;;;4987494;28;20580;-86
2021/12/31 02:55:16;;;;;;;7.40;3.70;;;6.40;1.00;6.80;94539.00;;;;4956878;28;20202;-87
2021/12/31 02:57:43;;;;;;;6.50;4.30;;;6.50;1.00;6.70;94480.00;;;;4955959;28;20198;-87
2021/12/31 03:00:11;;;;;;;5.97;3.90;;;6.50;1.00;6.60;94550.00;;;;4955207;28;20680;-86
2021/12/31 03:02:41;;;;;;;7.47;3.90;;;6.40;1.00;6.60;94468.00;;;;4956027;28;20258;-86
2021/12/31 03:05:09;;;;;;;8.07;4.40;;;6.40;1.00;6.60;94527.00;;;;4955631;28;20200;-86
2021/12/31 03:07:44;;;;;;;7.13;3.87;;;6.50;1.00;6.70;94546.00;;;;4970898;28;20571;-85
2021/12/31 03:10:12;;;;;;;6.53;4.43;;;6.50;1.00;6.70;94569.00;;;;4968744;28;20206;-87
2021/12/31 03:12:41;;;;;;;7.40;4.70;;;6.50;1.00;6.60;94487.00;;;;4968070;28;20260;-86
2021/12/31 03:15:10;;;;;;;8.13;3.87;;;6.40;1.00;6.50;94573.00;;;;4954935;28;20284;-86
2021/12/31 03:17:41;;;;;;;9.20;4.47;;;6.40;1.00;6.60;94591.00;;;;4972987;28;20256;-86
2021/12/31 03:20:12;;;;;;;7.93;5.00;;;6.40;1.00;6.60;94579.00;;;;4952462;28;20249;-86
2021/12/31 03:22:43;;;;;;;8.53;4.80;;;6.40;1.00;6.40;94527.00;;;;4969312;28;20692;-85
2021/12/31 03:25:11;;;;;;;8.40;4.57;;;6.20;1.00;6.20;94343.00;;;;4955009;28;20273;-85
2021/12/31 03:27:38;;;;;;;11.63;4.90;;;6.20;1.00;6.40;94518.00;;;;4967103;28;20195;-85
2021/12/31 03:30:06;;;;;;;11.57;5.30;;;6.10;1.00;6.50;94465.00;;;;4968466;28;20285;-86
2021/12/31 03:32:36;;;;;;;7.90;4.33;;;6.10;1.00;6.20;94441.00;;;;4970453;28;20229;-86
2021/12/31 03:35:04;;;;;;;9.77;4.90;;;6.00;1.00;6.10;94514.00;;;;4953150;28;20197;-86
2021/12/31 03:37:31;;;;;;;9.30;4.57;;;5.90;1.00;6.10;94584.00;;;;4983103;28;20653;-87
2021/12/31 03:39:58;;;;;;;12.53;4.53;;;5.80;1.00;6.30;94585.00;;;;4955244;28;20272;-87
2021/12/31 03:42:25;;;;;;;9.93;5.07;;;5.80;1.00;6.30;94611.00;;;;4955046;28;20248;-87
2021/12/31 03:44:52;;;;;;;8.30;4.93;;;5.90;1.00;6.30;94515.00;;;;4954486;28;20661;-86
2021/12/31 03:47:19;;;;;;;10.77;5.53;;;5.90;1.00;6.20;94499.00;;;;4952393;28;20186;-86
2021/12/31 03:49:46;;;;;;;11.10;5.67;;;5.90;1.00;6.10;94492.00;;;;4960317;28;20205;-87
2021/12/31 03:52:13;;;;;;;23.27;6.17;;;5.80;1.00;5.90;94514.00;;;;4968482;28;20210;-86
2021/12/31 03:54:40;;;;;;;11.67;5.27;;;5.70;1.00;6.00;94399.00;;;;4954196;28;21854;-88
2021/12/31 03:57:07;;;;;;;46.43;6.27;;;5.60;1.00;5.80;94488.00;;;;4954475;28;20661;-88
2021/12/31 03:59:39;;;;;;;12.40;5.67;;;5.60;1.00;5.80;94470.00;;;;4967850;28;20300;-88
2021/12/31 04:02:07;;;;;;;51.43;7.40;;;5.60;1.00;5.70;94530.00;;;;4952745;28;20199;-87
2021/12/31 04:04:34;;;;;;;21.57;6.73;;;5.50;1.00;5.80;94482.00;;;;4969267;28;20324;-89
2021/12/31 04:07:01;;;;;;;19.37;5.57;;;5.50;1.00;5.80;94496.00;;;;4971695;28;20586;-91
2021/12/31 04:09:28;;;;;;;16.27;5.33;;;5.50;1.00;6.00;94469.00;;;;4950419;28;20574;-88
2021/12/31 04:11:56;;;;;;;10.67;5.10;;;5.60;1.00;6.10;94469.00;;;;4970360;28;20210;-88
2021/12/31 04:14:22;;;;;;;21.37;6.70;;;5.70;1.00;5.80;94528.00;;;;4970062;28;20221;-88
2021/12/31 04:16:50;;;;;;;9.23;5.17;;;5.60;1.00;6.10;94466.00;;;;4967078;28;20198;-88
2021/12/31 04:19:17;;;;;;;12.37;4.77;;;5.60;1.00;6.10;94534.00;;;;4952689;28;20244;-88
2021/12/31 04:21:44;;;;;;;10.70;5.00;;;5.70;1.00;5.70;94490.00;;;;4954095;28;20185;-88
2021/12/31 04:24:26;;;;;;;8.17;4.70;;;5.60;1.00;5.80;94409.00;;;;4952425;28;20532;-87
2021/12/31 04:26:54;;;;;;;8.57;3.90;;;5.70;1.00;6.10;94493.00;;;;4954267;28;20751;-86
2021/12/31 04:29:21;;;;;;;15.30;6.40;;;5.70;1.00;5.70;94453.00;;;;4987892;28;20726;-87
2021/12/31 04:31:48;;;;;;;16.50;5.60;;;5.60;1.00;5.90;94480.00;;;;4970068;28;20197;-87
2021/12/31 04:34:15;;;;;;;8.60;4.30;;;5.60;1.00;5.90;94466.00;;;;4954875;28;20190;-87
2021/12/31 04:36:42;;;;;;;20.83;5.60;;;5.60;1.00;5.70;94450.00;;;;4949625;28;20201;-87
2021/12/31 04:39:09;;;;;;;10.53;4.20;;;5.50;1.00;5.80;94463.00;;;;4950286;28;20190;-87
2021/12/31 04:41:36;;;;;;;10.50;4.27;;;5.40;1.00;5.70;94437.00;;;;4952331;28;20221;-87
2021/12/31 04:44:03;;;;;;;11.80;4.60;;;5.40;1.00;5.80;94321.00;;;;4954724;28;20225;-87
2021/12/31 04:46:30;;;;;;;23.97;6.00;;;5.50;1.00;5.60;94493.00;;;;4954104;28;20567;-88
2021/12/31 04:48:57;;;;;;;49.73;6.50;;;5.40;1.00;5.70;94464.00;;;;4952973;28;20634;-89
2021/12/31 04:51:24;;;;;;;30.97;7.17;;;5.40;1.00;5.70;94369.00;;;;4955677;28;20546;-88
2021/12/31 04:53:51;;;;;;;32.23;5.30;;;5.40;1.00;5.60;94446.00;;;;4969356;28;20656;-90
2021/12/31 04:56:18;;;;;;;14.77;4.87;;;5.40;1.00;5.60;94525.00;;;;4969042;28;21189;-89
2021/12/31 04:58:45;;;;;;;9.43;3.70;;;5.30;1.00;5.50;94521.00;;;;4950849;28;20209;-88
2021/12/31 05:01:12;;;;;;;23.90;5.53;;;5.30;1.00;5.80;94504.00;;;;4953789;28;20771;-90
2021/12/31 05:03:40;;;;;;;24.20;5.57;;;5.40;1.00;5.50;94440.00;;;;4954421;28;20182;-89
2021/12/31 05:06:07;;;;;;;139.57;9.47;;;5.40;1.00;5.50;94501.00;;;;4955937;28;21521;-89
2021/12/31 05:08:34;;;;;;;73.67;7.87;;;5.30;1.00;5.40;94265.00;;;;4967889;28;20194;-89
2021/12/31 05:11:01;;;;;;;18.63;5.73;;;5.20;1.00;5.30;94463.00;;;;4969953;28;20221;-90
2021/12/31 05:13:30;;;;;;;99.57;9.53;;;5.10;1.00;5.30;94562.00;;;;4968978;28;20279;-89
2021/12/31 05:16:02;;;;;;;24.23;4.73;;;5.10;1.00;5.10;94476.00;;;;4970499;28;20190;-90
2021/12/31 05:18:30;;;;;;;17.93;5.73;;;5.00;1.00;5.20;94456.00;;;;4970376;28;20441;-89
2021/12/31 05:20:57;;;;;;;17.07;5.07;;;5.00;1.00;5.40;94322.00;;;;4954920;28;20245;-89
2021/12/31 05:23:24;;;;;;;20.03;5.47;;;5.10;1.00;5.30;94446.00;;;;4950927;28;20277;-90
2021/12/31 05:25:51;;;;;;;35.60;6.40;;;5.00;1.00;4.00;94470.00;;;;4986824;28;20664;-90
2021/12/31 05:28:19;;;;;;;7.90;4.50;;;5.10;1.00;5.50;94433.00;;;;4955187;28;20649;-89
2021/12/31 05:30:46;;;;;;;9.67;4.80;;;5.10;1.00;5.80;94432.00;;;;4957104;28;20731;-89
2021/12/31 05:33:13;;;;;;;10.03;4.67;;;5.30;1.00;6.00;94394.00;;;;4971380;28;20194;-90
2021/12/31 05:35:40;;;;;;;11.93;5.17;;;5.50;1.40;5.90;94448.00;;;;4957741;28;20194;-89
2021/12/31 05:38:07;;;;;;;9.40;4.57;;;5.50;12.90;5.90;94474.00;;;;4956381;28;20715;-89
2021/12/31 05:40:35;;;;;;;11.50;4.40;;;5.60;15.20;6.00;94449.00;;;;4958850;28;20308;-90
2021/12/31 05:43:02;;;;;;;46.00;6.33;;;5.60;18.30;5.80;94385.00;;;;4954013;28;20221;-90
2021/12/31 05:45:29;;;;;;;15.53;6.07;;;5.60;32.70;5.70;94413.00;;;;4958182;28;20272;-89
2021/12/31 05:48:16;;;;;;;38.13;4.93;;;5.50;22.50;5.80;94415.00;;;;4971915;28;20186;-90
2021/12/31 05:50:43;;;;;;;8.73;4.10;;;5.50;21.00;6.10;94403.00;;;;4970411;28;20764;-89
2021/12/31 05:53:10;;;;;;;6.30;3.80;;;5.50;20.80;6.20;94342.00;;;;4974173;28;20798;-89
2021/12/31 05:55:37;;;;;;;38.00;6.63;;;5.70;25.90;6.20;94461.00;;;;4958439;28;20240;-91
2021/12/31 05:58:05;;;;;;;10.37;4.50;;;5.80;36.50;6.20;94470.00;;;;4973473;28;20194;-90
2021/12/31 06:00:32;;;;;;;37.87;6.00;;;5.80;41.20;5.90;94451.00;;;;4955022;28;20272;-90
2021/12/31 06:02:59;;;;;;;29.73;5.67;;;5.70;44.30;5.50;94499.00;;;;4972368;28;20190;-90
2021/12/31 06:05:27;;;;;;;11.03;4.13;;;5.50;51.50;5.50;94362.00;;;;4956232;28;20201;-90
2021/12/31 06:07:57;;;;;;;192.60;11.40;;;5.30;49.60;5.40;94150.00;;;;4970787;28;20194;-90
2021/12/31 06:10:25;;;;;;;39.90;5.90;;;5.20;47.80;5.30;94533.00;;;;4958802;28;20202;-90
2021/12/31 06:12:58;;;;;;;35.23;6.00;;;5.20;47.90;5.00;94354.00;;;;4953502;28;20208;-91
2021/12/31 06:15:28;;;;;;;20.33;5.30;;;5.00;60.30;5.30;94471.00;;;;4958733;28;20285;-92
2021/12/31 06:17:55;;;;;;;82.63;8.33;;;5.00;41.90;5.20;94459.00;;;;4973754;28;20221;-92
2021/12/31 06:20:24;;;;;;;9.10;3.50;;;5.00;38.60;5.50;94491.00;;;;4959076;28;21144;-90
2021/12/31 06:22:51;;;;;;;112.10;9.93;;;5.00;34.30;5.50;94523.00;;;;4970495;28;20245;-89
2021/12/31 06:25:21;;;;;;;12.43;4.80;;;5.10;33.90;5.10;94426.00;;;;4972836;28;21341;-90
2021/12/31 06:27:48;;;;;;;13.70;4.80;;;5.20;37.10;5.30;94452.00;;;;4971625;28;20191;-89
2021/12/31 06:30:15;;;;;;;53.80;5.97;;;5.10;38.00;5.30;94492.00;;;;4972179;28;20222;-90
2021/12/31 06:32:42;;;;;;;13.40;4.23;;;5.10;36.90;5.20;94505.00;;;;4955761;28;20189;-90
2021/12/31 06:35:09;;;;;;;14.37;4.97;;;5.00;38.30;5.30;94419.00;;;;4971437;28;20225;-90
2021/12/31 06:37:37;;;;;;;13.63;4.53;;;5.00;37.30;5.30;94471.00;;;;4957808;28;20653;-89
2021/12/31 06:40:07;;;;;;;59.03;6.57;;;5.00;36.70;5.30;94386.00;;;;4957239;28;20252;-89
2021/12/31 06:42:38;;;;;;;17.00;4.80;;;5.00;33.40;5.40;94394.00;;;;4954711;28;20195;-90
2021/12/31 06:45:06;;;;;;;22.97;4.53;;;5.00;34.50;5.40;94454.00;;;;4954326;28;20196;-90
2021/12/31 06:47:34;;;;;;;14.43;4.57;;;5.00;38.20;5.30;94523.00;;;;4952803;28;20209;-90
2021/12/31 06:50:01;;;;;;;240.53;15.57;;;5.00;45.60;5.10;94425.00;;;;4957937;28;20186;-90
2021/12/31 06:52:28;;;;;;;132.97;9.33;;;5.00;51.70;5.30;94417.00;;;;4957310;28;20202;-89
2021/12/31 06:54:56;;;;;;;14.10;4.40;;;5.00;70.20;5.30;94538.00;;;;4953249;28;20205;-90
2021/12/31 06:57:25;;;;;;;10.53;4.43;;;5.00;95.20;5.30;94371.00;;;;4951278;28;20247;-89
2021/12/31 06:59:54;;;;;;;13.63;4.77;;;5.00;99.90;4.90;94246.00;;;;4981553;28;20213;-87
2021/12/31 07:03:24;;;;;;;17.63;4.87;;;5.00;99.90;5.30;94529.00;;;;4958004;28;20897;-92
2021/12/31 07:05:56;;;;;;;20.27;5.37;;;5.00;99.90;4.90;94565.00;;;;4941152;28;20196;-92
2021/12/31 07:08:38;;;;;;;10.97;4.00;;;5.00;99.90;4.70;94297.00;;;;4969322;28;20194;-91
2021/12/31 07:14:42;;;;;;;13.50;4.60;;;5.10;99.90;4.30;94217.00;;;;4922113;28;20200;-92
2021/12/31 07:22:05;;;;;;;28.70;8.30;;;4.70;80.80;4.70;94487.00;;;;4901917;29;20228;-90
2021/12/31 07:24:32;;;;;;;13.10;4.90;;;4.70;95.50;4.70;94579.00;;;;4899857;29;20207;-91
2021/12/31 07:27:00;;;;;;;234.10;12.73;;;4.70;90.60;4.80;94531.00;;;;4911016;28;20205;-91
2021/12/31 07:29:27;;;;;;;193.17;10.80;;;4.60;89.20;3.60;94579.00;;;;4953569;28;20237;-92
2021/12/31 07:31:54;;;;;;;41.10;6.33;;;4.50;86.80;4.80;94272.00;;;;4957347;28;20198;-91
2021/12/31 07:34:21;;;;;;;8.87;3.40;;;4.50;79.50;5.10;94360.00;;;;4954742;28;20224;-91
2021/12/31 08:20:17;;;;;;;8.03;3.30;;;7.00;99.90;7.60;94561.00;;;;4972557;28;20222;-82
2021/12/31 08:22:45;;;;;;;7.30;3.40;;;7.20;99.90;7.40;94488.00;;;;4957416;28;20716;-83
2021/12/31 08:25:12;;;;;;;7.97;3.57;;;7.40;99.90;8.20;94420.00;;;;4965442;28;20559;-83
2021/12/31 08:27:39;;;;;;;5.35;2.75;;;7.70;99.90;8.60;94459.00;;;;4938238;29;20290;-83
2021/12/31 08:30:08;;;;;;;6.38;2.92;;;7.80;99.90;8.70;94437.00;;;;4982135;28;20293;-84
2021/12/31 08:32:36;;;;;;;4.55;2.80;;;7.90;99.90;8.70;94575.00;;;;4973781;28;20183;-82
2021/12/31 08:35:06;;;;;;;4.25;2.50;;;8.10;99.90;8.90;94370.00;;;;4957313;28;20558;-84
2021/12/31 08:37:35;;;;;;;5.05;2.15;;;8.20;99.90;9.00;94425.00;;;;4979953;28;20202;-83
2021/12/31 08:40:04;;;;;;;3.90;1.80;;;8.40;99.90;8.10;94415.00;;;;4967405;28;20710;-83
2021/12/31 08:42:31;;;;;;;3.45;1.85;;;8.60;99.90;9.40;94556.00;;;;4971637;28;20187;-83
2021/12/31 08:45:14;;;;;;;3.50;2.00;;;8.70;99.90;9.50;94413.00;;;;4958607;28;20233;-84
2021/12/31 08:47:41;;;;;;;2.33;1.83;;;9.00;99.90;9.80;94449.00;;;;4950460;28;20692;-84
2021/12/31 08:50:09;;;;;;;6.22;2.28;;;9.20;99.90;10.10;94514.00;;;;4972929;28;20183;-83
2021/12/31 08:52:38;;;;;;;2.28;1.60;;;9.40;99.90;10.00;94387.00;;;;4975145;28;20204;-82
2021/12/31 08:55:09;;;;;;;4.60;1.50;;;9.50;99.90;10.40;94488.00;;;;4969733;28;20251;-82
2021/12/31 08:57:36;;;;;;;4.22;1.67;;;9.60;99.90;10.40;94341.00;;;;4957676;28;20688;-83
2021/12/31 09:00:06;;;;;;;1.65;1.55;;;9.90;99.90;10.20;94361.00;;;;4958665;28;20755;-84
2021/12/31 09:02:39;;;;;;;3.90;1.52;;;10.10;99.90;10.60;94441.00;;;;4965960;28;20599;-84
2021/12/31 09:05:08;;;;;;;2.42;1.30;;;10.30;1.00;10.80;94546.00;;;;4979565;28;20190;-84
2021/12/31 09:07:52;;;;;;;2.15;1.30;;;10.50;1.00;10.90;94492.00;;;;4959151;28;20194;-83
2021/12/31 09:10:20;;;;;;;1.20;0.95;;;10.70;1.00;11.40;94342.00;;;;4980008;28;20198;-81
2021/12/31 09:12:49;;;;;;;2.92;1.17;;;10.90;99.90;11.40;94432.00;;;;4962050;28;20567;-85
2021/12/31 09:15:18;;;;;;;2.35;1.23;;;11.10;99.90;10.80;94327.00;;;;4974796;28;20743;-83
2021/12/31 09:17:47;;;;;;;2.63;1.20;;;11.40;1.00;10.90;94416.00;;;;4979440;28;20277;-83
2021/12/31 09:20:15;;;;;;;5.95;1.40;;;11.70;99.90;11.20;94293.00;;;;4959961;28;20250;-84
2021/12/31 09:22:43;;;;;;;1.77;1.35;;;12.00;99.90;10.70;94518.00;;;;4966676;28;20186;-85
2021/12/31 09:25:10;;;;;;;1.95;1.40;;;12.30;1.00;11.60;94366.00;;;;4977010;28;20206;-85
2021/12/31 09:27:37;;;;;;;2.05;1.40;;;12.50;99.90;11.00;94492.00;;;;4975578;28;20520;-87
2021/12/31 09:30:05;;;;;;;1.15;1.05;;;12.90;1.00;11.60;94419.00;;;;4955809;28;20594;-85
2021/12/31 09:32:33;;;;;;;1.70;1.17;;;13.40;1.00;11.80;94440.00;;;;4976442;28;20225;-87
2021/12/31 11:47:17;;;;;;;1.17;1.10;;;17.00;1.00;14.80;94423.00;;;;4958670;28;20210;-81
2021/12/31 11:49:48;;;;;;;1.20;1.10;;;17.10;99.90;14.30;94439.00;;;;4944192;28;20229;-81
2021/12/31 11:52:23;;;;;;;1.13;1.02;;;16.70;99.90;13.20;94442.00;;;;4952780;28;20666;-81
2021/12/31 11:55:22;;;;;;;1.27;1.17;;;16.10;1.00;13.90;94164.00;;;;4942682;28;20613;-81
2021/12/31 11:57:52;;;;;;;1.30;1.20;;;15.60;1.00;14.30;94247.00;;;;4944037;28;20203;-81
2021/12/31 12:00:26;;;;;;;1.63;1.52;;;15.90;1.00;16.00;94318.00;;;;4960158;28;20557;-81
2021/12/31 12:02:54;;;;;;;1.67;1.27;;;16.00;1.00;15.90;94542.00;;;;4961059;28;20191;-81
2021/12/31 12:05:38;;;;;;;0.50;0.50;;;16.00;1.00;16.20;94250.00;;;;4939373;28;20187;-80
2021/12/31 12:08:25;;;;;;;0.47;0.47;;;15.60;1.00;15.40;94470.00;;;;4972865;28;20606;-80
2021/12/31 12:10:53;;;;;;;0.40;0.40;;;15.30;1.00;15.80;94492.00;;;;4961999;28;20195;-80
2021/12/31 12:13:26;;;;;;;1.10;0.40;;;15.40;99.90;15.60;94460.00;;;;4958648;28;20645;-81
2021/12/31 12:15:57;;;;;;;0.43;0.40;;;15.20;1.00;15.90;94397.00;;;;4927777;28;20188;-81
2021/12/31 12:18:54;;;;;;;1.33;0.45;;;15.20;1.00;17.60;94446.00;;;;4960453;28;20195;-81
2021/12/31 12:21:37;;;;;;;0.40;0.40;;;15.70;1.00;16.60;94282.00;;;;4980252;23;20207;-82
2021/12/31 12:24:08;;;;;;;0.50;0.45;;;16.30;99.90;16.70;94325.00;;;;4964404;28;20203;-81
2021/12/31 12:26:41;;;;;;;0.40;0.40;;;16.20;99.90;16.40;94266.00;;;;4939942;29;20738;-81
2021/12/31 12:29:35;;;;;;;0.30;0.30;;;16.30;99.90;16.60;94262.00;;;;4939396;29;20748;-81
2021/12/31 12:32:40;;;;;;;1.48;0.50;;;16.10;99.90;16.10;94452.00;;;;4946419;29;20725;-82
2021/12/31 12:35:27;;;;;;;0.75;0.30;;;15.90;99.90;15.70;94297.00;;;;4931546;29;20251;-81
2021/12/31 12:38:23;;;;;;;1.70;0.40;;;15.60;99.90;15.40;94417.00;;;;4934297;29;21025;-82
2021/12/31 12:41:10;;;;;;;1.45;1.17;;;15.60;1.00;15.10;94355.00;;;;4964062;28;20214;-82
2021/12/31 12:43:47;;;;;;;2.25;1.15;;;15.80;1.00;14.40;94263.00;;;;4961576;29;20210;-81
2021/12/31 12:46:19;;;;;;;0.65;0.65;;;15.80;1.00;14.30;94236.00;;;;4954918;29;20188;-82
2021/12/31 12:48:51;;;;;;;1.17;1.00;;;16.30;1.00;14.20;94296.00;;;;4962056;28;20435;-81
2021/12/31 12:51:31;;;;;;;0.95;0.90;;;16.50;1.00;14.40;94337.00;;;;4942155;29;21180;-81
2021/12/31 12:54:05;;;;;;;1.23;1.13;;;16.30;99.90;13.30;94455.00;;;;4961576;29;20187;-82
2021/12/31 12:56:37;;;;;;;1.73;0.90;;;15.70;1.00;11.60;94225.00;;;;4956316;29;20205;-81
2021/12/31 12:59:14;;;;;;;0.90;0.88;;;14.80;1.00;12.30;94274.00;;;;4952735;29;20722;-82
2021/12/31 13:01:49;;;;;;;1.27;1.17;;;14.00;12.20;12.10;94371.00;;;;4966886;28;20615;-81
2021/12/31 13:04:18;;;;;;;2.30;1.60;;;13.50;99.90;11.90;94093.00;;;;4951343;29;20274;-81
2021/12/31 13:07:10;;;;;;;1.92;1.73;;;13.00;99.90;11.90;94453.00;;;;4937240;29;20195;-81
2021/12/31 13:09:42;;;;;;;1.75;1.20;;;12.80;99.90;12.70;94276.00;;;;4950919;28;20199;-81
2021/12/31 13:12:20;;;;;;;1.17;1.08;;;13.00;1.00;13.70;94401.00;;;;4953210;28;20200;-81
2021/12/31 13:15:09;;;;;;;1.20;1.00;;;13.80;99.90;15.10;94172.00;;;;4969325;28;20222;-81
2021/12/31 13:17:39;;;;;;;0.85;0.85;;;15.20;11.60;14.70;94231.00;;;;4950080;29;20199;-82
2021/12/31 13:20:13;;;;;;;1.35;1.10;;;16.20;1.00;16.50;94267.00;;;;4957359;28;20275;-82
2021/12/31 13:23:05;;;;;;;1.17;1.08;;;17.20;99.90;15.10;94440.00;;;;4948776;29;20218;-82
2021/12/31 13:26:34;;;;;;;1.15;1.05;;;17.50;99.90;14.00;94185.00;;;;4961360;28;20725;-82
2021/12/31 13:29:06;;;;;;;1.45;1.08;;;16.60;99.90;12.20;94459.00;;;;4968398;28;20206;-82
2021/12/31 13:31:42;;;;;;;1.50;1.27;;;15.40;1.00;13.20;94450.00;;;;4961745;28;20199;-81
2021/12/31 13:34:22;;;;;;;1.27;1.15;;;14.90;1.00;14.00;94305.00;;;;4972147;28;20197;-82
2021/12/31 13:36:55;;;;;;;1.35;1.20;;;14.90;69.20;14.30;94342.00;;;;4955446;29;20222;-82
2021/12/31 13:39:39;;;;;;;1.27;1.10;;;15.00;52.80;13.90;94377.00;;;;4940132;29;20271;-82
2021/12/31 13:42:12;;;;;;;1.52;1.40;;;14.90;99.90;14.60;94214.00;;;;4959684;29;20212;-82
2021/12/31 13:44:48;;;;;;;2.67;1.40;;;15.20;84.40;15.10;94255.00;;;;4956490;29;20227;-82
2021/12/31 13:47:19;;;;;;;2.33;1.55;;;15.80;53.20;15.30;94363.00;;;;4962938;29;20270;-82
2021/12/31 13:50:08;;;;;;;2.05;1.85;;;16.10;1.00;14.50;94359.00;;;;4953899;29;20461;-82
2021/12/31 13:52:48;;;;;;;2.10;1.90;;;16.20;1.00;14.80;94189.00;;;;4970448;28;20195;-82
2021/12/31 13:55:35;;;;;;;1.85;1.70;;;16.20;1.00;14.30;94423.00;;;;4962084;28;20228;-82
2021/12/31 13:58:06;;;;;;;2.00;1.83;;;16.10;1.00;15.60;94197.00;;;;4961271;28;20214;-82
2021/12/31 14:00:40;;;;;;;2.03;1.85;;;16.50;1.00;17.30;94364.00;;;;4947095;29;20236;-82
2021/12/31 14:03:17;;;;;;;1.50;1.30;;;16.90;1.00;17.00;94323.00;;;;4969017;29;20199;-82
2021/12/31 14:05:54;;;;;;;2.20;1.92;;;17.50;1.00;16.30;94172.00;;;;4967714;29;20206;-82
2021/12/31 14:08:42;;;;;;;1.98;1.77;;;17.70;99.90;15.90;94392.00;;;;4964476;28;20200;-82
2021/12/31 14:11:16;;;;;;;1.60;1.50;;;17.30;1.00;16.30;94269.00;;;;4952322;29;20258;-82
2021/12/31 14:13:45;;;;;;;2.00;1.10;;;17.50;1.00;16.80;94207.00;;;;4941407;29;20665;-82
2021/12/31 14:16:13;;;;;;;0.70;0.70;;;17.60;99.90;17.60;94226.00;;;;4965872;29;20187;-82
2021/12/31 14:18:41;;;;;;;0.60;0.60;;;17.70;99.90;17.50;94345.00;;;;4962802;28;20207;-82
2021/12/31 14:21:11;;;;;;;0.70;0.70;;;17.60;99.90;17.40;94447.00;;;;4961123;28;21058;-82
2021/12/31 14:23:38;;;;;;;0.68;0.68;;;17.20;99.90;16.40;94433.00;;;;4943713;29;20227;-81
2021/12/31 14:26:06;;;;;;;0.45;0.45;;;16.60;99.90;15.60;94367.00;;;;4955381;29;21321;-82
2021/12/31 14:28:36;;;;;;;0.45;0.45;;;15.90;1.00;15.20;94304.00;;;;4957672;28;20288;-81
2021/12/31 14:31:04;;;;;;;0.90;0.70;;;15.30;1.00;14.30;94339.00;;;;4952725;29;20234;-81
2021/12/31 14:33:32;;;;;;;0.40;0.40;;;14.70;1.00;14.10;94299.00;;;;4956189;29;20226;-81